createdAt,value
2023-03-15T00:03:27.487Z,-0.17
2023-03-15T00:07:30.309Z,-0.09
2023-03-15T00:11:31.765Z,-0.14
2023-03-15T00:15:33.256Z,-0.16
2023-03-15T00:19:34.803Z,-0.07
2023-03-15T00:23:37.681Z,-0.17
2023-03-15T00:27:39.276Z,-0.22
2023-03-15T00:31:40.779Z,-0.25
2023-03-15T00:35:44.060Z,-0.29
2023-03-15T00:39:47.525Z,-0.32
2023-03-15T00:43:49.335Z,-0.36
2023-03-15T00:47:51.808Z,-0.27
2023-03-15T00:51:54.764Z,-0.12
2023-03-15T00:55:57.573Z,-0.07
2023-03-15T00:59:59.019Z,-0.07
2023-03-15T01:04:00.506Z,-0.07
2023-03-15T01:08:01.930Z,-0.11
2023-03-15T01:12:05.082Z,-0.14
2023-03-15T01:16:08.626Z,-0.17
2023-03-15T01:20:12.529Z,-0.16
2023-03-15T01:24:15.105Z,-0.21
2023-03-15T01:28:17.968Z,-0.23
2023-03-15T01:32:19.422Z,-0.20
2023-03-15T01:36:21.192Z,-0.30
2023-03-15T01:40:22.720Z,-0.35
2023-03-15T01:44:49.259Z,-0.46
2023-03-15T01:48:56.704Z,-0.46
2023-03-15T01:52:58.277Z,-0.57
2023-03-15T01:57:04.542Z,-0.53
2023-03-15T02:01:08.631Z,-0.50
2023-03-15T02:05:15.225Z,-0.44
2023-03-15T02:09:18.647Z,-0.41
2023-03-15T02:13:23.491Z,-0.38
2023-03-15T02:17:36.586Z,-0.30
2023-03-15T02:21:46.231Z,-0.29
2023-03-15T02:25:54.128Z,-0.23
2023-03-15T02:29:57.064Z,-0.21
2023-03-15T02:33:58.591Z,-0.29
2023-03-15T02:38:00.029Z,-0.34
2023-03-15T02:42:01.640Z,-0.45
2023-03-15T02:46:05.605Z,-0.49
2023-03-15T02:50:07.753Z,-0.50
2023-03-15T02:54:09.201Z,-0.56
2023-03-15T02:58:10.620Z,-0.59
2023-03-15T03:02:13.729Z,-0.60
2023-03-15T03:06:16.622Z,-0.66
2023-03-15T03:10:19.995Z,-0.70
2023-03-15T03:14:21.761Z,-0.75
2023-03-15T03:18:24.541Z,-0.70
2023-03-15T03:22:26.030Z,-0.76
2023-03-15T03:26:27.464Z,-0.86
2023-03-15T03:30:28.890Z,-0.91
2023-03-15T03:34:31.741Z,-0.98
2023-03-15T03:38:33.164Z,-1.01
2023-03-15T03:42:34.619Z,-1.07
2023-03-15T03:46:36.038Z,-1.08
2023-03-15T03:50:38.816Z,-1.10
2023-03-15T03:54:40.289Z,-1.17
2023-03-15T03:58:41.736Z,-1.29
2023-03-15T04:02:43.242Z,-1.39
2023-03-15T04:06:46.197Z,-1.41
2023-03-15T04:10:50.238Z,-1.46
2023-03-15T04:14:51.685Z,-1.45
2023-03-15T04:18:53.115Z,-1.41
2023-03-15T04:22:55.874Z,-1.40
2023-03-15T04:26:57.292Z,-1.35
2023-03-15T04:30:58.880Z,-1.32
2023-03-15T04:35:00.475Z,-1.37
2023-03-15T04:39:03.764Z,-1.36
2023-03-15T04:43:05.929Z,-1.29
2023-03-15T04:47:07.492Z,-1.29
2023-03-15T04:51:08.990Z,-1.35
2023-03-15T04:55:12.765Z,-1.37
2023-03-15T04:59:14.216Z,-1.36
2023-03-15T05:03:15.649Z,-1.35
2023-03-15T05:07:17.063Z,-1.39
2023-03-15T05:11:19.932Z,-1.34
2023-03-15T05:15:21.504Z,-1.27
2023-03-15T05:19:22.941Z,-1.41
2023-03-15T05:23:25.071Z,-1.44
2023-03-15T05:27:27.844Z,-1.44
2023-03-15T05:31:29.337Z,-1.59
2023-03-15T05:35:30.830Z,-1.71
2023-03-15T05:39:32.254Z,-1.73
2023-03-15T05:43:35.069Z,-1.76
2023-03-15T05:47:36.512Z,-1.74
2023-03-15T05:51:37.950Z,-1.56
2023-03-15T05:55:39.392Z,-1.52
2023-03-15T05:59:42.139Z,-1.33
2023-03-15T06:03:43.679Z,-1.14
2023-03-15T06:07:45.204Z,-0.99
2023-03-15T06:11:46.643Z,-0.85
2023-03-15T06:15:49.430Z,-0.89
2023-03-15T06:19:50.929Z,-0.78
2023-03-15T06:23:52.372Z,-0.67
2023-03-15T06:27:53.790Z,-0.45
2023-03-15T06:31:56.563Z,-0.14
2023-03-15T06:35:58.020Z,-0.03
2023-03-15T06:39:59.472Z,0.09
2023-03-15T06:44:00.883Z,0.20
2023-03-15T06:48:04.306Z,0.35
2023-03-15T06:52:07.019Z,0.55
2023-03-15T06:56:08.455Z,0.68
2023-03-15T07:00:11.413Z,0.82
2023-03-15T07:04:14.237Z,0.91
2023-03-15T07:08:15.678Z,1.06
2023-03-15T07:12:17.099Z,1.09
2023-03-15T07:16:18.613Z,1.28
2023-03-15T07:20:21.438Z,1.62
2023-03-15T07:24:22.884Z,1.91
2023-03-15T07:28:25.974Z,2.01
2023-03-15T07:32:27.557Z,1.91
2023-03-15T07:36:30.419Z,1.98
2023-03-15T07:40:31.831Z,2.23
2023-03-15T07:44:33.337Z,2.50
2023-03-15T07:48:34.796Z,2.54
2023-03-15T07:52:37.664Z,2.50
2023-03-15T07:56:39.173Z,2.60
2023-03-15T08:00:41.074Z,2.66
2023-03-15T08:04:42.558Z,2.94
2023-03-15T08:08:45.330Z,3.15
2023-03-15T08:12:46.742Z,3.33
2023-03-15T08:16:48.217Z,2.85
2023-03-15T08:20:49.659Z,2.53
2023-03-15T08:24:52.451Z,2.56
2023-03-15T08:28:53.892Z,2.09
2023-03-15T08:32:55.387Z,1.95
2023-03-15T08:36:56.969Z,1.96
2023-03-15T08:40:59.761Z,1.70
2023-03-15T08:45:01.177Z,0.96
2023-03-15T08:49:02.862Z,0.50
2023-03-15T08:53:04.277Z,0.41
2023-03-15T08:57:07.171Z,0.27
2023-03-15T09:01:11.476Z,0.35
2023-03-15T09:05:12.894Z,0.61
2023-03-15T09:09:14.330Z,0.73
2023-03-15T09:13:17.092Z,0.94
2023-03-15T09:17:18.629Z,1.18
2023-03-15T09:21:20.160Z,1.55
2023-03-15T09:25:22.752Z,1.67
2023-03-15T09:29:25.569Z,1.80
2023-03-15T09:33:27.012Z,2.07
2023-03-15T09:37:28.733Z,2.08
2023-03-15T09:41:41.033Z,2.19
2023-03-15T09:45:54.013Z,2.15
2023-03-15T09:50:02.342Z,2.35
2023-03-15T09:54:08.413Z,2.64
2023-03-15T09:58:14.265Z,2.57
2023-03-15T10:02:24.056Z,2.48
2023-03-15T10:06:29.690Z,2.56
2023-03-15T10:10:36.376Z,2.27
2023-03-15T10:14:55.763Z,2.01
2023-03-15T10:19:05.884Z,1.93
2023-03-15T10:23:15.077Z,1.88
2023-03-15T10:27:22.011Z,1.89
2023-03-15T10:31:36.758Z,2.12
2023-03-15T10:35:46.454Z,2.24
2023-03-15T10:39:53.418Z,2.41
2023-03-15T10:44:01.715Z,2.80
2023-03-15T10:48:03.545Z,3.23
2023-03-15T10:52:07.461Z,3.29
2023-03-15T10:56:24.299Z,3.56
2023-03-15T11:00:29.314Z,3.55
2023-03-15T11:04:33.027Z,3.52
2023-03-15T11:08:38.876Z,3.44
2023-03-15T11:12:40.366Z,3.75
2023-03-15T11:16:41.960Z,3.78
2023-03-15T11:20:43.967Z,3.60
2023-03-15T11:24:46.792Z,3.45
2023-03-15T11:28:51.404Z,3.44
2023-03-15T11:32:53.443Z,3.44
2023-03-15T11:37:07.981Z,3.37
2023-03-15T11:41:22.175Z,3.44
2023-03-15T11:45:31.404Z,3.45
2023-03-15T11:49:36.562Z,3.25
2023-03-15T11:53:44.983Z,3.19
2023-03-15T11:57:48.791Z,3.23
2023-03-15T12:01:52.130Z,3.16
2023-03-15T12:06:00.444Z,3.12
2023-03-15T12:10:34.605Z,3.35
2023-03-15T12:14:37.550Z,3.65
2023-03-15T12:18:44.257Z,3.72
2023-03-15T12:22:50.868Z,3.79
2023-03-15T12:27:01.269Z,4.24
2023-03-15T12:31:06.568Z,4.60
2023-03-15T12:35:16.089Z,4.69
2023-03-15T12:39:35.188Z,4.86
2023-03-15T12:43:39.201Z,4.51
2023-03-15T12:47:45.604Z,4.95
2023-03-15T12:51:56.521Z,5.37
2023-03-15T12:56:33.719Z,5.53
2023-03-15T13:00:37.607Z,5.84
2023-03-15T13:04:41.049Z,5.56
2023-03-15T13:08:51.923Z,5.03
2023-03-15T13:13:00.073Z,4.74
2023-03-15T13:17:10.165Z,4.72
2023-03-15T13:21:18.570Z,6.43
2023-03-15T13:25:28.300Z,6.12
2023-03-15T13:29:31.529Z,5.56
2023-03-15T13:33:33.012Z,8.08
2023-03-15T13:37:35.805Z,7.00
2023-03-15T13:41:38.710Z,5.31
2023-03-15T13:45:41.924Z,4.85
2023-03-15T13:49:44.585Z,5.34
2023-03-15T13:53:50.483Z,4.76
2023-03-15T13:57:56.511Z,5.20
2023-03-15T14:01:58.912Z,5.16
2023-03-15T14:06:00.807Z,5.08
2023-03-15T14:10:25.296Z,5.07
2023-03-15T14:14:29.247Z,5.50
2023-03-15T14:18:34.163Z,5.84
2023-03-15T14:22:36.233Z,5.48
2023-03-15T14:26:39.964Z,5.34
2023-03-15T14:30:42.476Z,6.99
2023-03-15T14:34:46.578Z,7.04
2023-03-15T14:38:51.355Z,6.94
2023-03-15T14:42:54.370Z,5.87
2023-03-15T14:46:56.012Z,5.66
2023-03-15T14:50:57.801Z,5.90
2023-03-15T14:54:59.313Z,5.99
2023-03-15T14:59:03.442Z,5.70
2023-03-15T15:03:13.704Z,5.61
2023-03-15T15:07:15.944Z,5.95
2023-03-15T15:11:17.507Z,5.78
2023-03-15T15:15:21.939Z,5.97
2023-03-15T15:19:23.401Z,5.66
2023-03-15T15:23:27.291Z,5.52
2023-03-15T15:27:28.794Z,4.95
2023-03-15T15:31:31.816Z,4.54
2023-03-15T15:35:33.488Z,4.42
2023-03-15T15:39:34.994Z,4.24
2023-03-15T15:43:36.424Z,4.18
2023-03-15T15:47:39.211Z,4.18
2023-03-15T15:51:42.348Z,4.15
2023-03-15T15:55:44.386Z,4.12
2023-03-15T15:59:45.820Z,4.03
2023-03-15T16:03:48.579Z,3.88
2023-03-15T16:07:50.809Z,3.79
2023-03-15T16:11:52.299Z,3.64
2023-03-15T16:15:53.830Z,3.57
2023-03-15T16:19:56.878Z,3.58
2023-03-15T16:24:01.646Z,3.50
2023-03-15T16:28:04.309Z,3.52
2023-03-15T16:32:16.961Z,3.41
2023-03-15T16:36:23.584Z,3.31
2023-03-15T16:40:27.236Z,3.19
2023-03-15T16:44:28.680Z,3.12
2023-03-15T16:48:30.110Z,3.08
2023-03-15T16:52:33.313Z,2.93
2023-03-15T16:56:35.951Z,2.66
2023-03-15T17:00:37.401Z,2.69
2023-03-15T17:04:38.907Z,2.57
2023-03-15T17:08:41.838Z,2.39
2023-03-15T17:12:43.597Z,2.27
2023-03-15T17:16:45.194Z,2.23
2023-03-15T17:20:48.475Z,2.24
2023-03-15T17:24:51.286Z,2.30
2023-03-15T17:28:52.719Z,2.38
2023-03-15T17:32:54.511Z,2.32
2023-03-15T17:36:55.989Z,2.27
2023-03-15T17:40:58.981Z,2.14
2023-03-15T17:45:00.418Z,2.00
2023-03-15T17:49:02.999Z,1.85
2023-03-15T17:53:07.539Z,1.72
2023-03-15T17:57:12.784Z,1.61
2023-03-15T18:01:16.545Z,1.46
2023-03-15T18:05:20.131Z,1.28
2023-03-15T18:09:21.569Z,1.16
2023-03-15T18:13:24.519Z,0.98
2023-03-15T18:17:26.049Z,0.99
2023-03-15T18:21:27.708Z,0.93
2023-03-15T18:25:31.664Z,0.72
2023-03-15T18:29:34.437Z,0.53
2023-03-15T18:33:35.855Z,0.44
2023-03-15T18:37:37.262Z,0.49
2023-03-15T18:41:38.696Z,0.47
2023-03-15T18:45:41.602Z,0.40
2023-03-15T18:49:43.026Z,0.36
2023-03-15T18:53:45.209Z,0.22
2023-03-15T18:57:46.631Z,0.09
2023-03-15T19:01:49.382Z,-0.10
2023-03-15T19:05:50.808Z,-0.23
2023-03-15T19:09:52.232Z,-0.23
2023-03-15T19:13:53.717Z,-0.26
2023-03-15T19:17:56.509Z,-0.28
2023-03-15T19:21:57.918Z,-0.39
2023-03-15T19:25:59.352Z,-0.43
2023-03-15T19:30:00.886Z,-0.45
2023-03-15T19:34:03.696Z,-0.50
2023-03-15T19:38:05.128Z,-0.60
2023-03-15T19:42:06.692Z,-0.74
2023-03-15T19:46:08.258Z,-0.76
2023-03-15T19:50:13.134Z,-0.72
2023-03-15T19:54:14.651Z,-0.68
2023-03-15T19:58:16.085Z,-0.70
2023-03-15T20:02:17.569Z,-0.79
2023-03-15T20:06:20.348Z,-0.78
2023-03-15T20:10:22.139Z,-0.70
2023-03-15T20:14:23.761Z,-0.66
2023-03-15T20:18:25.523Z,-0.71
2023-03-15T20:22:28.298Z,-0.72
2023-03-15T20:26:30.149Z,-0.74
2023-03-15T20:30:31.572Z,-0.72
2023-03-15T20:34:33.099Z,-0.68
2023-03-15T20:38:35.960Z,-0.71
2023-03-15T20:42:37.418Z,-0.68
2023-03-15T20:46:38.987Z,-0.76
2023-03-15T20:50:40.663Z,-0.79
2023-03-15T20:54:43.426Z,-0.81
2023-03-15T20:58:45.045Z,-0.85
2023-03-15T21:02:46.979Z,-0.93
2023-03-15T21:06:48.441Z,-1.02
2023-03-15T21:10:51.249Z,-1.02
2023-03-15T21:14:52.666Z,-0.92
2023-03-15T21:18:54.174Z,-0.99
2023-03-15T21:22:55.582Z,-1.04
2023-03-15T21:26:58.355Z,-1.17
2023-03-15T21:31:00.133Z,-1.23
2023-03-15T21:35:01.668Z,-1.32
2023-03-15T21:39:03.344Z,-1.42
2023-03-15T21:43:06.142Z,-1.62
2023-03-15T21:47:07.589Z,-1.74
2023-03-15T21:51:09.464Z,-1.82
2023-03-15T21:55:10.905Z,-1.93
2023-03-15T21:59:13.798Z,-1.98
2023-03-15T22:03:15.208Z,-2.04
2023-03-15T22:07:16.633Z,-2.09
2023-03-15T22:11:18.549Z,-2.12
2023-03-15T22:15:21.810Z,-2.07
2023-03-15T22:19:23.529Z,-2.06
2023-03-15T22:23:25.070Z,-2.05
2023-03-15T22:27:26.497Z,-2.07
2023-03-15T22:31:29.351Z,-2.00
2023-03-15T22:35:30.827Z,-1.96
2023-03-15T22:39:32.341Z,-1.85
2023-03-15T22:43:33.919Z,-1.80
2023-03-15T22:47:36.714Z,-1.80
2023-03-15T22:51:38.552Z,-1.79
2023-03-15T22:55:39.981Z,-1.82
2023-03-15T22:59:41.412Z,-1.92
2023-03-15T23:03:44.154Z,-1.98
2023-03-15T23:07:45.678Z,-1.85
2023-03-15T23:11:47.249Z,-1.76
2023-03-15T23:15:48.846Z,-1.70
2023-03-15T23:19:51.753Z,-1.80
2023-03-15T23:23:53.168Z,-1.86
2023-03-15T23:27:55.864Z,-1.99
2023-03-15T23:31:57.494Z,-2.08
2023-03-15T23:36:00.308Z,-2.15
2023-03-15T23:40:01.767Z,-2.20
2023-03-15T23:44:03.207Z,-2.29
2023-03-15T23:48:05.052Z,-2.30
2023-03-15T23:52:08.080Z,-2.29
2023-03-15T23:56:09.518Z,-2.32
